Time;durP1;ratioP1;P1;durP2;ratioP2;P2;SDS_P1;SDS_P2;PMS_P1;PMS_P2;Temp;Humidity;BMP_temperature;BMP_pressure;BME280_temperature;BME280_humidity;BME280_pressure;Samples;Min_cycle;Max_cycle;Signal;HPM_P1;HPM_P2
2020/12/19 00:02:24;;;;;;;8.80;5.53;;;8.20;89.50;;;;;;5034277;28;20021;-84
2020/12/19 00:04:49;;;;;;;8.87;6.17;;;8.20;89.50;;;;;;5034548;28;20445;-84
2020/12/19 00:07:17;;;;;;;8.50;5.73;;;8.20;89.40;;;;;;5017066;28;20363;-84
2020/12/19 00:09:42;;;;;;;8.83;5.40;;;8.20;89.80;;;;;;5036635;28;20025;-85
2020/12/19 00:12:08;;;;;;;9.20;5.60;;;8.20;89.60;;;;;;5039211;28;20478;-84
2020/12/19 00:14:33;;;;;;;7.63;4.77;;;8.20;89.50;;;;;;5054644;23;20124;-87
2020/12/19 00:16:59;;;;;;;10.37;5.63;;;8.20;89.40;;;;;;5029461;28;20417;-87
2020/12/19 00:19:25;;;;;;;8.17;5.27;;;8.20;89.70;;;;;;5030778;28;20025;-87
2020/12/19 00:21:51;;;;;;;8.13;5.30;;;8.20;89.50;;;;;;5040063;28;20021;-90
2020/12/19 00:24:16;;;;;;;8.63;5.57;;;8.20;89.70;;;;;;5035589;28;20025;-88
2020/12/19 00:26:42;;;;;;;8.53;5.20;;;8.20;89.40;;;;;;5035570;28;20037;-86
2020/12/19 00:29:10;;;;;;;8.73;5.23;;;8.20;89.50;;;;;;5028825;28;20084;-87
2020/12/19 00:31:37;;;;;;;9.57;6.07;;;8.20;89.30;;;;;;5024894;28;20347;-86
2020/12/19 00:34:04;;;;;;;9.80;4.90;;;8.30;89.30;;;;;;5043139;28;20393;-87
2020/12/19 00:36:29;;;;;;;10.00;5.50;;;8.20;89.10;;;;;;5024878;28;20037;-85
2020/12/19 00:38:55;;;;;;;8.53;5.60;;;8.20;89.10;;;;;;5025279;28;20409;-86
2020/12/19 00:41:23;;;;;;;8.27;5.20;;;8.20;89.20;;;;;;5024681;28;20484;-86
2020/12/19 00:43:50;;;;;;;8.90;5.77;;;8.20;89.20;;;;;;5025082;28;20033;-86
2020/12/19 00:46:17;;;;;;;9.57;6.23;;;8.20;89.30;;;;;;5025639;28;20116;-86
2020/12/19 00:48:43;;;;;;;9.03;4.90;;;8.20;89.20;;;;;;5030659;28;20033;-88
2020/12/19 00:51:16;;;;;;;8.00;5.30;;;8.20;89.10;;;;;;5047841;28;20406;-87
2020/12/19 00:53:43;;;;;;;8.27;5.23;;;8.20;89.10;;;;;;5030747;28;20037;-88
2020/12/19 00:56:23;;;;;;;10.20;5.63;;;8.20;89.10;;;;;;5029911;28;20026;-86
2020/12/19 00:58:54;;;;;;;8.80;5.10;;;8.20;88.80;;;;;;5030485;28;20056;-89
2020/12/19 01:01:22;;;;;;;8.80;5.20;;;8.20;89.10;;;;;;5030692;28;20504;-87
2020/12/19 01:03:48;;;;;;;9.60;5.73;;;8.20;88.90;;;;;;5030401;28;20029;-88
2020/12/19 01:06:15;;;;;;;8.70;5.00;;;8.20;89.10;;;;;;5030482;28;20036;-88
2020/12/19 01:08:41;;;;;;;8.40;4.83;;;8.20;89.00;;;;;;5030826;28;20035;-86
2020/12/19 01:11:13;;;;;;;10.47;5.73;;;8.20;89.00;;;;;;5030384;28;20065;-87
2020/12/19 01:13:38;;;;;;;10.07;5.80;;;8.20;89.10;;;;;;5047960;28;20029;-87
2020/12/19 01:16:04;;;;;;;10.37;6.20;;;8.20;89.00;;;;;;5029700;28;20460;-86
2020/12/19 01:18:30;;;;;;;10.60;5.30;;;8.10;89.10;;;;;;5030136;28;20094;-87
2020/12/19 01:20:55;;;;;;;8.50;5.33;;;8.20;89.00;;;;;;5047064;28;20033;-88
2020/12/19 01:23:21;;;;;;;8.97;5.40;;;8.20;89.10;;;;;;5031470;28;20407;-87
2020/12/19 01:25:46;;;;;;;10.03;5.63;;;8.20;89.00;;;;;;5041626;28;20022;-87
2020/12/19 01:28:12;;;;;;;8.87;5.20;;;8.20;88.90;;;;;;5040779;28;20056;-89
2020/12/19 01:30:38;;;;;;;7.80;4.80;;;8.20;89.00;;;;;;5040821;28;20022;-90
2020/12/19 01:33:04;;;;;;;8.13;4.73;;;8.20;88.90;;;;;;5039429;28;20025;-88
2020/12/19 01:35:29;;;;;;;8.23;5.20;;;8.20;88.90;;;;;;5034156;28;20080;-87
2020/12/19 01:37:55;;;;;;;7.93;4.93;;;8.30;88.90;;;;;;5030730;28;20075;-87
2020/12/19 01:40:21;;;;;;;10.10;5.80;;;8.20;88.90;;;;;;5030074;28;20026;-88
2020/12/19 01:42:46;;;;;;;11.07;5.90;;;8.20;88.70;;;;;;5030438;28;20025;-87
2020/12/19 01:45:12;;;;;;;9.00;5.13;;;8.30;88.70;;;;;;5029459;28;20342;-88
2020/12/19 01:47:38;;;;;;;8.47;5.43;;;8.20;88.90;;;;;;5029350;28;20025;-86
2020/12/19 01:50:06;;;;;;;8.37;5.23;;;8.30;89.40;;;;;;5029338;28;20033;-88
2020/12/19 01:52:32;;;;;;;7.97;4.87;;;8.30;88.80;;;;;;5029340;28;20108;-86
2020/12/19 01:55:00;;;;;;;8.93;5.20;;;8.20;89.00;;;;;;5036685;28;20030;-88
2020/12/19 01:57:30;;;;;;;9.67;5.47;;;8.30;89.10;;;;;;5041754;28;20033;-89
2020/12/19 01:59:56;;;;;;;8.53;4.93;;;8.20;88.80;;;;;;5040841;28;20038;-86
2020/12/19 02:02:24;;;;;;;8.77;5.60;;;8.30;88.70;;;;;;5040827;28;20342;-89
2020/12/19 02:04:50;;;;;;;10.03;5.87;;;8.20;89.00;;;;;;5041142;28;20021;-88
2020/12/19 02:07:17;;;;;;;11.07;5.97;;;8.30;89.00;;;;;;5058587;28;20026;-86
2020/12/19 02:09:46;;;;;;;10.40;5.23;;;8.20;88.80;;;;;;5048520;28;20089;-86
2020/12/19 02:12:12;;;;;;;9.15;5.93;;;8.20;89.10;;;;;;5040515;28;20466;-86
2020/12/19 02:14:39;;;;;;;14.13;5.50;;;8.20;88.90;;;;;;5022299;28;20596;-86
2020/12/19 02:17:10;;;;;;;8.47;5.13;;;8.30;89.00;;;;;;5022046;28;20037;-87
2020/12/19 02:19:36;;;;;;;8.87;5.57;;;8.20;89.00;;;;;;5022380;28;20045;-86
2020/12/19 02:22:04;;;;;;;8.40;5.43;;;8.30;89.10;;;;;;5039421;28;20412;-86
2020/12/19 02:24:29;;;;;;;9.73;6.30;;;8.20;89.00;;;;;;5021699;28;20017;-86
2020/12/19 02:26:57;;;;;;;9.43;5.83;;;8.20;89.10;;;;;;5021583;28;20022;-86
2020/12/19 02:29:28;;;;;;;10.20;5.83;;;8.20;89.30;;;;;;5021555;28;20033;-85
2020/12/19 02:31:55;;;;;;;9.33;5.53;;;8.30;89.10;;;;;;5021193;28;20093;-85
2020/12/19 02:34:21;;;;;;;9.63;6.23;;;8.20;89.20;;;;;;5021507;28;20063;-86
2020/12/19 02:36:47;;;;;;;9.40;5.80;;;8.20;89.20;;;;;;5021204;28;20152;-87
2020/12/19 02:39:13;;;;;;;11.00;6.17;;;8.20;89.10;;;;;;5021478;28;20493;-87
2020/12/19 02:41:44;;;;;;;8.97;5.93;;;8.20;89.10;;;;;;5021593;28;20029;-86
2020/12/19 02:44:15;;;;;;;13.07;6.20;;;8.20;89.10;;;;;;5021567;28;20398;-86
2020/12/19 02:46:41;;;;;;;10.93;6.07;;;8.20;89.00;;;;;;5023149;28;20028;-86
2020/12/19 02:49:08;;;;;;;10.03;6.10;;;8.20;89.20;;;;;;5040905;28;20045;-86
2020/12/19 02:51:34;;;;;;;10.50;6.30;;;8.20;89.20;;;;;;5023053;28;20037;-86
2020/12/19 02:54:00;;;;;;;12.67;6.23;;;8.20;89.20;;;;;;5022618;28;20030;-86
2020/12/19 02:56:25;;;;;;;10.17;6.10;;;8.20;89.00;;;;;;5022497;28;20030;-87
2020/12/19 02:58:51;;;;;;;10.40;6.20;;;8.20;89.30;;;;;;5021254;28;20055;-86
2020/12/19 03:01:17;;;;;;;9.33;5.87;;;8.20;89.50;;;;;;5021377;28;20052;-86
2020/12/19 03:03:42;;;;;;;11.33;6.20;;;8.20;89.30;;;;;;5021308;28;20124;-86
2020/12/19 03:06:08;;;;;;;8.93;6.07;;;8.20;89.30;;;;;;5020858;28;20025;-86
2020/12/19 03:08:34;;;;;;;10.03;6.10;;;8.20;89.50;;;;;;5038598;28;20460;-87
2020/12/19 03:10:59;;;;;;;10.97;6.60;;;8.20;89.30;;;;;;5021073;28;20034;-85
2020/12/19 03:13:26;;;;;;;9.40;5.70;;;8.20;89.30;;;;;;5021868;28;20091;-86
2020/12/19 03:15:51;;;;;;;11.37;6.20;;;8.20;89.30;;;;;;5021169;28;20048;-85
2020/12/19 03:18:17;;;;;;;9.50;6.00;;;8.20;89.30;;;;;;5019973;28;20033;-86
2020/12/19 03:20:43;;;;;;;10.70;6.00;;;8.20;89.30;;;;;;5020666;28;20029;-85
2020/12/19 03:23:08;;;;;;;10.60;6.00;;;8.20;89.10;;;;;;5019777;28;20529;-85
2020/12/19 03:25:34;;;;;;;9.77;6.00;;;8.20;89.10;;;;;;5038464;28;20026;-87
2020/12/19 03:28:00;;;;;;;10.20;6.43;;;8.20;88.90;;;;;;5020435;28;20029;-86
2020/12/19 03:30:25;;;;;;;11.13;6.47;;;8.20;89.00;;;;;;5020255;28;20026;-86
2020/12/19 03:32:53;;;;;;;9.93;6.10;;;8.20;89.00;;;;;;5020105;28;20030;-86
2020/12/19 03:35:19;;;;;;;10.60;6.73;;;8.20;89.30;;;;;;5019792;28;20394;-86
2020/12/19 03:37:45;;;;;;;9.57;6.10;;;8.20;89.30;;;;;;5037360;28;20075;-86
2020/12/19 03:40:11;;;;;;;10.67;6.83;;;8.20;89.40;;;;;;5019684;28;20025;-86
2020/12/19 03:42:36;;;;;;;10.27;6.83;;;8.20;89.30;;;;;;5038136;28;20386;-87
2020/12/19 03:45:08;;;;;;;9.13;6.27;;;8.20;89.50;;;;;;5019615;28;20030;-85
2020/12/19 03:47:33;;;;;;;11.60;7.13;;;8.20;89.40;;;;;;5019866;28;20029;-86
2020/12/19 03:50:00;;;;;;;10.23;6.40;;;8.20;89.50;;;;;;5019130;28;20452;-86
2020/12/19 03:52:25;;;;;;;10.40;6.50;;;8.20;89.50;;;;;;5036626;28;20528;-85
2020/12/19 03:54:51;;;;;;;10.70;6.93;;;8.20;89.50;;;;;;5018594;28;20033;-86
2020/12/19 03:57:17;;;;;;;11.20;6.90;;;8.20;89.60;;;;;;5019205;28;20036;-86
2020/12/19 03:59:42;;;;;;;9.73;6.30;;;8.20;89.60;;;;;;5019499;28;20386;-86
2020/12/19 04:02:08;;;;;;;10.97;6.70;;;8.20;89.70;;;;;;5019828;28;20032;-86
2020/12/19 04:04:34;;;;;;;11.03;6.53;;;8.20;89.70;;;;;;5019770;28;20064;-86
2020/12/19 04:07:01;;;;;;;11.47;7.33;;;8.20;89.80;;;;;;5020361;28;20033;-87
2020/12/19 04:09:27;;;;;;;11.40;7.30;;;8.20;90.10;;;;;;5037756;28;20047;-86
2020/12/19 04:11:52;;;;;;;11.50;7.20;;;8.20;89.90;;;;;;5020408;28;20464;-86
2020/12/19 04:14:18;;;;;;;11.27;7.30;;;8.20;89.80;;;;;;5020029;28;20486;-86
2020/12/19 04:16:46;;;;;;;12.07;7.27;;;8.10;89.90;;;;;;5020458;28;20120;-86
2020/12/19 04:19:12;;;;;;;12.00;7.30;;;8.10;90.00;;;;;;5020800;28;20044;-86
2020/12/19 04:21:38;;;;;;;12.50;7.57;;;8.20;90.00;;;;;;5020515;28;20358;-86
2020/12/19 04:24:03;;;;;;;12.77;8.00;;;8.20;90.00;;;;;;5020685;28;20026;-87
2020/12/19 04:26:29;;;;;;;10.90;6.80;;;8.10;90.00;;;;;;5021078;28;20030;-85
2020/12/19 04:28:54;;;;;;;12.43;7.60;;;8.10;89.90;;;;;;5020808;28;20240;-86
2020/12/19 04:31:20;;;;;;;11.60;7.57;;;8.00;90.00;;;;;;5020438;28;20159;-85
2020/12/19 04:33:46;;;;;;;14.97;8.47;;;8.10;90.00;;;;;;5020784;28;20026;-86
2020/12/19 04:36:11;;;;;;;11.43;7.00;;;8.10;89.70;;;;;;5021527;28;20036;-85
2020/12/19 04:38:37;;;;;;;13.37;7.83;;;8.10;89.80;;;;;;5019791;28;20402;-85
2020/12/19 04:41:04;;;;;;;11.27;7.03;;;8.20;90.20;;;;;;5019316;28;20037;-86
2020/12/19 04:43:30;;;;;;;11.80;7.47;;;8.10;89.80;;;;;;5019224;28;20032;-85
2020/12/19 04:45:55;;;;;;;10.57;6.80;;;8.10;89.70;;;;;;5018952;28;20061;-85
2020/12/19 04:48:24;;;;;;;11.63;7.20;;;8.10;89.80;;;;;;5020349;28;20037;-85
2020/12/19 04:50:50;;;;;;;12.15;7.15;;;8.10;89.70;;;;;;5020802;28;20025;-85
2020/12/19 04:53:21;;;;;;;10.43;7.00;;;8.10;89.70;;;;;;5020669;28;20156;-88
2020/12/19 04:55:48;;;;;;;11.13;7.00;;;8.10;89.90;;;;;;5022067;28;20032;-86
2020/12/19 04:58:19;;;;;;;12.93;7.67;;;8.10;89.80;;;;;;5023636;28;20029;-85
2020/12/19 05:00:46;;;;;;;11.57;7.27;;;8.10;89.90;;;;;;5023458;28;20026;-85
2020/12/19 05:03:13;;;;;;;11.50;7.47;;;8.00;90.00;;;;;;5022901;28;20022;-85
2020/12/19 05:05:43;;;;;;;14.13;7.77;;;8.00;90.00;;;;;;5025587;28;20075;-87
2020/12/19 05:08:10;;;;;;;14.20;7.67;;;8.00;90.00;;;;;;5038182;28;20128;-87
2020/12/19 05:10:36;;;;;;;14.03;8.07;;;8.00;90.00;;;;;;5033677;28;20029;-87
2020/12/19 05:13:02;;;;;;;11.87;7.47;;;8.00;89.90;;;;;;5031136;28;20084;-85
2020/12/19 05:15:28;;;;;;;11.53;7.27;;;8.10;90.00;;;;;;5023262;28;20029;-85
2020/12/19 05:17:58;;;;;;;13.23;7.87;;;8.00;90.00;;;;;;5024020;28;20061;-85
2020/12/19 05:20:29;;;;;;;13.20;7.90;;;8.00;89.80;;;;;;5041344;28;20075;-86
2020/12/19 05:22:55;;;;;;;12.90;8.10;;;8.10;90.00;;;;;;5022809;28;20022;-85
2020/12/19 05:25:24;;;;;;;13.13;8.77;;;8.10;89.90;;;;;;5041426;28;20466;-86
2020/12/19 05:27:50;;;;;;;13.48;8.30;;;8.10;89.90;;;;;;5023363;28;20025;-85
2020/12/19 05:30:18;;;;;;;11.57;7.53;;;8.10;90.00;;;;;;5041253;28;20445;-85
2020/12/19 05:32:51;;;;;;;12.93;7.83;;;8.00;90.00;;;;;;5022591;28;20028;-86
2020/12/19 05:35:20;;;;;;;10.80;7.50;;;8.10;90.10;;;;;;5022383;28;20036;-85
2020/12/19 05:37:56;;;;;;;11.47;7.73;;;8.10;90.10;;;;;;5022873;28;20026;-85
2020/12/19 05:40:23;;;;;;;12.80;7.83;;;8.10;90.00;;;;;;5022476;28;20021;-86
2020/12/19 05:42:49;;;;;;;11.70;7.57;;;8.00;90.00;;;;;;5022617;28;20045;-87
2020/12/19 05:45:22;;;;;;;11.87;7.60;;;8.00;90.00;;;;;;5040938;28;20041;-85
2020/12/19 05:47:48;;;;;;;12.13;7.50;;;8.10;90.00;;;;;;5023093;28;20462;-86
2020/12/19 05:50:15;;;;;;;12.63;7.60;;;8.00;90.00;;;;;;5023193;28;20029;-85
2020/12/19 05:52:41;;;;;;;12.80;7.60;;;8.00;90.00;;;;;;5023077;28;20496;-85
2020/12/19 05:55:11;;;;;;;12.07;7.60;;;8.10;90.10;;;;;;5040359;28;20029;-85
2020/12/19 05:57:37;;;;;;;10.87;7.50;;;8.00;90.10;;;;;;5022236;28;20021;-85
2020/12/19 06:00:12;;;;;;;14.43;8.20;;;8.10;90.10;;;;;;5022633;28;20052;-85
2020/12/19 06:02:38;;;;;;;13.70;7.57;;;8.10;90.20;;;;;;5022822;28;20071;-87
2020/12/19 06:05:09;;;;;;;11.97;7.67;;;8.10;90.20;;;;;;5022131;28;20022;-86
2020/12/19 06:07:43;;;;;;;13.60;7.70;;;8.10;90.20;;;;;;5021367;28;20030;-85
2020/12/19 06:10:17;;;;;;;11.60;7.23;;;8.10;90.20;;;;;;5022055;28;20037;-86
2020/12/19 06:13:04;;;;;;;12.67;7.80;;;8.10;90.20;;;;;;5021458;28;20033;-86
2020/12/19 06:16:07;;;;;;;12.37;8.37;;;8.10;90.20;;;;;;5039143;23;20041;-84
2020/12/19 06:18:47;;;;;;;12.13;7.60;;;8.10;90.30;;;;;;5057267;28;20033;-83
2020/12/19 06:21:14;;;;;;;12.93;8.33;;;8.10;90.30;;;;;;5056786;28;20025;-84
2020/12/19 06:23:41;;;;;;;11.27;7.67;;;8.10;90.30;;;;;;5055849;28;20112;-84
2020/12/19 06:26:11;;;;;;;13.03;8.13;;;8.10;90.40;;;;;;5057654;28;20060;-84
2020/12/19 06:28:42;;;;;;;12.67;7.93;;;8.10;90.30;;;;;;5057462;28;20021;-84
2020/12/19 06:31:10;;;;;;;12.13;7.90;;;8.10;90.30;;;;;;5057040;28;20044;-84
2020/12/19 06:33:38;;;;;;;12.67;8.80;;;8.10;90.30;;;;;;5056145;28;20036;-84
2020/12/19 06:36:28;;;;;;;12.93;8.10;;;8.10;90.30;;;;;;5057722;28;20028;-84
2020/12/19 06:39:07;;;;;;;13.13;8.47;;;8.10;90.40;;;;;;5068828;28;20021;-83
2020/12/19 06:41:42;;;;;;;13.27;8.10;;;8.10;90.30;;;;;;5070604;28;20021;-84
2020/12/19 06:44:18;;;;;;;15.13;8.63;;;8.10;90.40;;;;;;5066276;28;20033;-84
2020/12/19 06:46:44;;;;;;;12.17;8.20;;;8.00;90.40;;;;;;5055085;28;20025;-84
2020/12/19 06:49:22;;;;;;;17.97;11.10;;;8.10;90.50;;;;;;5055994;28;20025;-84
2020/12/19 06:52:05;;;;;;;15.70;10.17;;;8.10;90.50;;;;;;5055422;28;20025;-84
2020/12/19 06:54:37;;;;;;;13.63;9.03;;;8.10;90.60;;;;;;5056333;28;20484;-83
2020/12/19 06:57:04;;;;;;;17.80;10.33;;;8.10;90.70;;;;;;5056492;28;20440;-83
2020/12/19 06:59:31;;;;;;;14.73;9.57;;;8.20;90.70;;;;;;5055504;28;20031;-84
2020/12/19 07:02:15;;;;;;;13.77;8.87;;;8.10;90.70;;;;;;5055695;28;20038;-83
2020/12/19 07:04:41;;;;;;;16.23;9.33;;;8.10;90.70;;;;;;5054641;28;20071;-84
2020/12/19 07:07:08;;;;;;;14.57;9.57;;;8.10;90.80;;;;;;5056104;28;20021;-83
2020/12/19 07:09:35;;;;;;;15.77;9.10;;;8.20;90.90;;;;;;5053760;28;20032;-84
2020/12/19 07:12:01;;;;;;;14.53;8.43;;;8.20;90.90;;;;;;5054093;28;20389;-84
2020/12/19 07:14:39;;;;;;;16.20;9.10;;;8.20;91.00;;;;;;5055842;28;20386;-83
2020/12/19 07:17:20;;;;;;;19.90;9.70;;;8.20;91.00;;;;;;5054620;28;20394;-84
2020/12/19 07:19:55;;;;;;;14.47;9.47;;;8.20;91.10;;;;;;5054560;28;20049;-83
2020/12/19 07:22:23;;;;;;;14.23;9.07;;;8.20;91.10;;;;;;5055414;28;20044;-83
2020/12/19 07:24:50;;;;;;;13.73;9.23;;;8.20;91.20;;;;;;5055135;28;20098;-83
2020/12/19 07:27:16;;;;;;;13.87;9.00;;;8.30;91.20;;;;;;5055415;28;20035;-84
2020/12/19 07:29:41;;;;;;;14.93;8.63;;;8.20;91.20;;;;;;5054104;28;20029;-83
2020/12/19 07:32:07;;;;;;;15.53;9.73;;;8.30;91.20;;;;;;5052869;28;20021;-83
2020/12/19 07:34:33;;;;;;;14.47;9.27;;;8.30;91.40;;;;;;5054546;28;20071;-83
2020/12/19 07:36:58;;;;;;;15.27;9.27;;;8.30;91.30;;;;;;5054140;28;20021;-83
2020/12/19 07:39:24;;;;;;;14.33;8.73;;;8.30;91.30;;;;;;5053883;28;20535;-84
2020/12/19 07:42:08;;;;;;;15.77;9.77;;;8.30;91.30;;;;;;5053727;28;20028;-83
2020/12/19 07:44:35;;;;;;;13.83;9.00;;;8.20;91.30;;;;;;5053913;28;20023;-82
2020/12/19 07:47:04;;;;;;;16.93;9.80;;;8.30;91.40;;;;;;5054344;28;20016;-83
2020/12/19 07:49:34;;;;;;;16.95;9.65;;;8.30;91.40;;;;;;5052392;28;20025;-83
2020/12/19 07:52:08;;;;;;;17.20;10.23;;;8.30;91.30;;;;;;5054580;28;20345;-83
2020/12/19 07:54:35;;;;;;;14.00;9.07;;;8.30;91.30;;;;;;5055227;28;20386;-83
2020/12/19 07:57:01;;;;;;;16.43;10.30;;;8.30;91.30;;;;;;5055518;28;20028;-83
2020/12/19 07:59:27;;;;;;;16.13;10.10;;;8.30;91.40;;;;;;5054914;28;20024;-84
2020/12/19 08:01:54;;;;;;;15.03;10.33;;;8.30;91.50;;;;;;5054034;28;20040;-84
2020/12/19 08:04:20;;;;;;;15.17;9.83;;;8.30;91.30;;;;;;5055592;28;20174;-84
2020/12/19 08:06:46;;;;;;;15.73;10.60;;;8.30;91.30;;;;;;5055440;28;20500;-84
2020/12/19 08:09:17;;;;;;;17.10;10.50;;;8.30;91.20;;;;;;5054419;28;20052;-84
2020/12/19 08:11:44;;;;;;;15.03;9.47;;;8.30;91.30;;;;;;5054932;28;20055;-83
2020/12/19 08:14:10;;;;;;;17.90;10.57;;;8.30;91.20;;;;;;5055189;28;20059;-84
2020/12/19 08:16:37;;;;;;;17.37;9.90;;;8.40;91.20;;;;;;5054938;28;20037;-83
2020/12/19 08:19:04;;;;;;;18.63;10.10;;;8.40;91.30;;;;;;5054372;28;20020;-83
2020/12/19 08:21:30;;;;;;;17.97;9.80;;;8.40;91.30;;;;;;5054549;28;20380;-84
2020/12/19 08:23:56;;;;;;;14.20;9.33;;;8.40;91.30;;;;;;5054625;28;20028;-83
2020/12/19 08:26:22;;;;;;;17.63;9.90;;;8.30;91.40;;;;;;5054470;28;20505;-83
2020/12/19 08:29:01;;;;;;;14.37;9.50;;;8.40;91.40;;;;;;5052965;28;20078;-83
2020/12/19 08:31:28;;;;;;;16.05;9.95;;;8.40;91.40;;;;;;5058291;28;20025;-84
2020/12/19 08:33:56;;;;;;;14.10;9.10;;;8.40;91.30;;;;;;5058628;28;20032;-84
2020/12/19 08:36:22;;;;;;;14.83;10.13;;;8.50;91.30;;;;;;5059523;28;20025;-84
2020/12/19 08:38:48;;;;;;;15.73;9.17;;;8.50;91.30;;;;;;5057216;28;20029;-84
2020/12/19 08:41:20;;;;;;;14.83;9.70;;;8.40;91.30;;;;;;5057474;28;20025;-84
2020/12/19 08:43:46;;;;;;;16.47;9.50;;;8.50;91.20;;;;;;5057590;28;20044;-84
2020/12/19 08:46:15;;;;;;;15.67;9.90;;;8.50;91.70;;;;;;5057808;28;20028;-84
2020/12/19 08:48:41;;;;;;;15.32;9.93;;;8.60;91.30;;;;;;5059115;28;20029;-84
2020/12/19 08:51:09;;;;;;;13.40;9.03;;;8.50;91.30;;;;;;5056561;28;20086;-84
2020/12/19 08:53:34;;;;;;;16.33;10.17;;;8.60;91.30;;;;;;5057564;28;20033;-83
2020/12/19 08:56:15;;;;;;;12.87;8.27;;;8.60;91.30;;;;;;5058524;28;20032;-84
2020/12/19 08:58:41;;;;;;;12.77;9.27;;;8.50;91.30;;;;;;5058711;28;20032;-83
2020/12/19 09:01:16;;;;;;;14.83;8.67;;;8.60;91.40;;;;;;5058500;28;20025;-84
2020/12/19 09:03:43;;;;;;;13.17;8.97;;;8.60;91.30;;;;;;5058664;28;20025;-84
2020/12/19 09:06:14;;;;;;;13.47;9.00;;;8.60;91.50;;;;;;5058664;28;20025;-84
2020/12/19 09:08:40;;;;;;;16.57;8.70;;;8.70;91.60;;;;;;5058670;28;20090;-84
2020/12/19 09:11:08;;;;;;;12.63;8.70;;;8.70;91.20;;;;;;5058240;28;20112;-84
2020/12/19 09:13:35;;;;;;;14.47;8.27;;;8.70;91.20;;;;;;5057836;28;20055;-84
2020/12/19 09:16:09;;;;;;;13.37;8.30;;;8.80;91.20;;;;;;5059060;28;20457;-84
2020/12/19 09:18:40;;;;;;;14.83;7.97;;;8.80;91.10;;;;;;5059178;28;20025;-84
2020/12/19 09:21:07;;;;;;;14.10;8.23;;;8.80;91.10;;;;;;5058509;28;20032;-84
2020/12/19 09:23:34;;;;;;;12.77;8.93;;;8.80;91.10;;;;;;5061169;28;20025;-84
2020/12/19 09:26:02;;;;;;;12.97;8.50;;;8.80;91.00;;;;;;5064765;28;20017;-84
2020/12/19 09:28:29;;;;;;;12.03;8.00;;;8.90;91.00;;;;;;5061425;28;20028;-84
2020/12/19 09:30:57;;;;;;;12.33;7.93;;;8.90;91.00;;;;;;5060596;28;20070;-84
2020/12/19 09:33:23;;;;;;;11.03;7.23;;;8.90;90.90;;;;;;5060418;28;20025;-84
2020/12/19 09:35:50;;;;;;;12.07;8.17;;;9.00;90.90;;;;;;5064812;28;20093;-84
2020/12/19 09:38:16;;;;;;;12.53;8.00;;;9.00;90.90;;;;;;5062924;28;20032;-83
2020/12/19 09:40:42;;;;;;;12.00;7.43;;;9.00;90.80;;;;;;5056807;28;20029;-84
2020/12/19 09:43:09;;;;;;;13.63;7.53;;;9.00;90.80;;;;;;5057381;28;20462;-83
2020/12/19 09:45:35;;;;;;;12.37;7.67;;;9.10;91.00;;;;;;5057913;28;20017;-83
2020/12/19 09:48:02;;;;;;;13.57;7.80;;;9.10;90.70;;;;;;5058824;28;20032;-83
2020/12/19 09:50:28;;;;;;;11.30;7.67;;;9.10;90.70;;;;;;5056963;28;20029;-84
2020/12/19 09:52:54;;;;;;;12.23;7.27;;;9.10;90.70;;;;;;5058692;28;20021;-83
2020/12/19 09:55:21;;;;;;;10.93;6.93;;;9.20;90.60;;;;;;5060737;28;20049;-83
2020/12/19 09:57:47;;;;;;;13.10;8.03;;;9.20;90.70;;;;;;5061022;28;20236;-84
2020/12/19 10:00:14;;;;;;;15.20;8.83;;;9.10;90.60;;;;;;5061112;28;20031;-83
2020/12/19 10:02:41;;;;;;;14.10;7.57;;;9.20;90.60;;;;;;5062173;28;20021;-83
2020/12/19 10:05:07;;;;;;;13.70;7.77;;;9.20;90.40;;;;;;5061332;28;20025;-84
2020/12/19 10:07:34;;;;;;;11.83;7.40;;;9.20;90.50;;;;;;5062281;28;20025;-84
2020/12/19 10:09:59;;;;;;;11.43;7.03;;;9.30;90.50;;;;;;5061027;28;20029;-84
2020/12/19 10:12:26;;;;;;;13.13;8.20;;;9.40;90.20;;;;;;5061422;28;20416;-84
2020/12/19 10:14:51;;;;;;;12.63;8.03;;;9.40;90.20;;;;;;5062348;28;20057;-84
2020/12/19 10:17:17;;;;;;;13.63;7.83;;;9.40;90.20;;;;;;5062177;28;20052;-84
2020/12/19 10:19:43;;;;;;;11.33;7.17;;;9.40;90.00;;;;;;5066993;28;20024;-83
2020/12/19 10:22:08;;;;;;;11.23;6.80;;;9.40;90.10;;;;;;5069088;28;20029;-83
2020/12/19 10:24:34;;;;;;;10.33;6.50;;;9.40;90.00;;;;;;5071696;28;20028;-83
2020/12/19 10:27:00;;;;;;;12.27;6.93;;;9.40;89.90;;;;;;5059459;28;20055;-84
2020/12/19 10:29:25;;;;;;;10.83;6.83;;;9.50;90.00;;;;;;5056252;28;20025;-84
2020/12/19 10:31:51;;;;;;;10.27;6.27;;;9.50;89.80;;;;;;5057500;28;20064;-84
2020/12/19 10:34:17;;;;;;;12.17;7.23;;;9.50;89.80;;;;;;5059357;28;20120;-84
2020/12/19 10:36:42;;;;;;;10.43;6.60;;;9.50;89.90;;;;;;5058893;28;20572;-83
2020/12/19 10:39:08;;;;;;;11.17;6.63;;;9.50;89.80;;;;;;5058092;28;20170;-83
2020/12/19 10:41:34;;;;;;;11.93;6.97;;;9.60;89.80;;;;;;5058938;28;20025;-84
2020/12/19 10:43:59;;;;;;;12.30;7.50;;;9.60;90.00;;;;;;5056876;28;20025;-83
2020/12/19 10:46:27;;;;;;;10.30;6.37;;;9.60;89.30;;;;;;5056817;28;20473;-83
2020/12/19 10:48:53;;;;;;;11.10;6.10;;;9.70;88.90;;;;;;5056007;28;20478;-83
2020/12/19 10:51:29;;;;;;;13.33;6.10;;;9.70;88.80;;;;;;5056038;28;20131;-83
2020/12/19 10:53:56;;;;;;;9.10;6.17;;;9.70;88.50;;;;;;5056437;28;20435;-83
2020/12/19 10:56:22;;;;;;;11.33;5.87;;;9.70;88.70;;;;;;5058340;28;20029;-83
2020/12/19 10:58:48;;;;;;;9.17;5.30;;;9.80;88.70;;;;;;5054531;28;20481;-84
2020/12/19 11:01:17;;;;;;;13.03;6.57;;;9.80;88.50;;;;;;5054450;28;20033;-85
2020/12/19 11:03:44;;;;;;;12.00;5.63;;;9.80;88.80;;;;;;5055759;28;20025;-84
2020/12/19 11:06:26;;;;;;;9.83;5.67;;;9.80;88.40;;;;;;5054819;28;20045;-83
2020/12/19 11:08:53;;;;;;;7.23;4.97;;;9.80;88.30;;;;;;5054912;28;20032;-83
2020/12/19 11:11:20;;;;;;;7.57;5.07;;;9.80;88.30;;;;;;5055096;28;20132;-84
2020/12/19 11:13:46;;;;;;;10.90;5.73;;;9.80;88.30;;;;;;5055084;28;20389;-83
2020/12/19 11:16:29;;;;;;;8.97;5.30;;;9.90;87.90;;;;;;5054999;28;20033;-84
2020/12/19 11:19:21;;;;;;;7.47;4.73;;;9.90;87.40;;;;;;5061107;28;20043;-83
2020/12/19 11:21:46;;;;;;;9.27;5.60;;;10.00;87.40;;;;;;5060967;28;20115;-84
2020/12/19 11:24:13;;;;;;;6.93;4.87;;;10.00;87.50;;;;;;5061729;28;20044;-83
2020/12/19 11:26:40;;;;;;;11.20;6.30;;;10.00;87.40;;;;;;5060732;28;20397;-83
2020/12/19 11:29:06;;;;;;;9.63;5.37;;;10.00;87.30;;;;;;5061214;28;20093;-83
2020/12/19 11:31:32;;;;;;;9.27;5.27;;;10.00;87.20;;;;;;5061958;28;20036;-83
2020/12/19 11:33:58;;;;;;;9.03;5.87;;;10.00;87.10;;;;;;5061665;28;20036;-83
2020/12/19 11:36:24;;;;;;;7.90;4.70;;;10.10;86.90;;;;;;5061877;28;20025;-83
2020/12/19 11:38:50;;;;;;;8.33;4.73;;;10.10;86.90;;;;;;5060715;28;20055;-83
2020/12/19 11:41:25;;;;;;;6.43;4.00;;;10.10;87.00;;;;;;5062545;28;20024;-83
2020/12/19 11:43:52;;;;;;;8.40;4.60;;;10.10;86.70;;;;;;5061313;28;20017;-83
2020/12/19 11:46:18;;;;;;;7.43;5.07;;;10.10;87.00;;;;;;5061906;28;20017;-84
2020/12/19 11:48:44;;;;;;;7.53;4.43;;;10.10;86.80;;;;;;5061934;28;20021;-83
2020/12/19 11:51:10;;;;;;;8.23;4.40;;;10.10;87.00;;;;;;5060880;28;20035;-83
2020/12/19 11:53:35;;;;;;;7.97;4.43;;;10.10;87.00;;;;;;5062525;28;20025;-85
2020/12/19 11:56:02;;;;;;;8.37;4.47;;;10.10;86.80;;;;;;5061442;28;20049;-83
2020/12/19 11:58:28;;;;;;;8.37;4.30;;;10.20;86.80;;;;;;5060668;28;20017;-83
2020/12/19 12:00:54;;;;;;;6.90;4.67;;;10.20;86.80;;;;;;5063768;28;20028;-84
2020/12/19 12:03:19;;;;;;;8.83;4.13;;;10.20;86.60;;;;;;5062766;28;20021;-83
2020/12/19 12:05:45;;;;;;;9.43;4.37;;;10.20;86.60;;;;;;5066679;28;20025;-83
2020/12/19 12:08:11;;;;;;;6.40;4.30;;;10.30;86.30;;;;;;5069212;28;20090;-83
2020/12/19 12:10:36;;;;;;;7.57;3.87;;;10.30;86.40;;;;;;5068383;28;20033;-83
2020/12/19 12:13:02;;;;;;;7.83;4.43;;;10.30;86.20;;;;;;5068926;28;20032;-83
2020/12/19 12:15:41;;;;;;;11.03;3.97;;;10.40;85.70;;;;;;5068322;28;20037;-83
2020/12/19 12:18:06;;;;;;;5.65;3.42;;;10.40;85.60;;;;;;5065345;28;20041;-83
2020/12/19 12:20:32;;;;;;;5.57;3.60;;;10.50;85.50;;;;;;5065939;28;20031;-83
2020/12/19 12:22:58;;;;;;;6.07;3.30;;;10.50;85.60;;;;;;5067300;28;20053;-83
2020/12/19 12:25:23;;;;;;;6.47;3.40;;;10.60;85.00;;;;;;5065852;28;20024;-83
2020/12/19 12:27:49;;;;;;;5.87;3.57;;;10.60;85.10;;;;;;5068390;28;20031;-82
2020/12/19 12:30:15;;;;;;;6.47;3.40;;;10.60;85.30;;;;;;5067447;28;20021;-84
2020/12/19 12:32:41;;;;;;;7.73;3.40;;;10.60;84.70;;;;;;5067312;28;20090;-83
2020/12/19 12:35:06;;;;;;;4.83;3.03;;;10.70;84.90;;;;;;5066238;28;20029;-83
2020/12/19 12:37:32;;;;;;;4.87;3.03;;;10.70;84.60;;;;;;5066054;28;20366;-83
2020/12/19 12:39:58;;;;;;;6.37;3.07;;;10.80;84.70;;;;;;5062312;28;20382;-83
2020/12/19 12:42:23;;;;;;;6.03;3.30;;;10.80;84.50;;;;;;5061266;28;20433;-83
2020/12/19 12:44:50;;;;;;;5.70;3.20;;;10.80;84.30;;;;;;5060976;28;20516;-83
2020/12/19 12:47:16;;;;;;;6.23;3.03;;;10.90;83.90;;;;;;5061815;28;20021;-84
2020/12/19 12:49:42;;;;;;;6.03;3.30;;;10.90;84.10;;;;;;5062717;28;20456;-84
2020/12/19 12:52:07;;;;;;;5.73;3.50;;;10.90;83.70;;;;;;5062085;28;20067;-83